sensor_id;sensor_type;location;lat;lon;timestamp;temperature;humidity
52656;SHT85;35474;51.032;6.998;2023-03-24T00:00:15;12.85;81.86
52656;SHT85;35474;51.032;6.998;2023-03-24T00:02:46;13.05;80.90
52656;SHT85;35474;51.032;6.998;2023-03-24T00:05:14;12.98;81.10
52656;SHT85;35474;51.032;6.998;2023-03-24T00:07:43;12.98;81.46
52656;SHT85;35474;51.032;6.998;2023-03-24T00:10:12;12.86;82.13
52656;SHT85;35474;51.032;6.998;2023-03-24T00:12:41;13.09;81.11
52656;SHT85;35474;51.032;6.998;2023-03-24T00:15:09;13.20;80.48
52656;SHT85;35474;51.032;6.998;2023-03-24T00:17:42;13.15;80.75
52656;SHT85;35474;51.032;6.998;2023-03-24T00:20:11;13.22;80.33
52656;SHT85;35474;51.032;6.998;2023-03-24T00:22:41;13.22;80.44
52656;SHT85;35474;51.032;6.998;2023-03-24T00:25:09;13.40;79.26
52656;SHT85;35474;51.032;6.998;2023-03-24T00:27:36;13.43;79.17
52656;SHT85;35474;51.032;6.998;2023-03-24T00:30:07;13.30;79.66
52656;SHT85;35474;51.032;6.998;2023-03-24T00:32:35;13.39;79.33
52656;SHT85;35474;51.032;6.998;2023-03-24T00:35:04;13.30;79.94
52656;SHT85;35474;51.032;6.998;2023-03-24T00:37:49;13.42;79.31
52656;SHT85;35474;51.032;6.998;2023-03-24T00:40:19;13.40;79.38
52656;SHT85;35474;51.032;6.998;2023-03-24T00:42:47;13.43;79.34
52656;SHT85;35474;51.032;6.998;2023-03-24T00:45:16;13.34;79.75
52656;SHT85;35474;51.032;6.998;2023-03-24T00:47:45;13.03;81.27
52656;SHT85;35474;51.032;6.998;2023-03-24T00:50:17;12.91;81.97
52656;SHT85;35474;51.032;6.998;2023-03-24T00:52:45;12.86;82.32
52656;SHT85;35474;51.032;6.998;2023-03-24T00:55:14;12.79;82.76
52656;SHT85;35474;51.032;6.998;2023-03-24T01:00:35;12.71;83.31
52656;SHT85;35474;51.032;6.998;2023-03-24T01:03:07;12.79;83.16
52656;SHT85;35474;51.032;6.998;2023-03-24T01:05:34;12.76;83.15
52656;SHT85;35474;51.032;6.998;2023-03-24T01:08:02;12.75;82.90
52656;SHT85;35474;51.032;6.998;2023-03-24T01:10:31;12.72;83.31
52656;SHT85;35474;51.032;6.998;2023-03-24T01:13:00;12.68;83.34
52656;SHT85;35474;51.032;6.998;2023-03-24T01:15:28;12.68;83.39
52656;SHT85;35474;51.032;6.998;2023-03-24T01:17:58;12.67;83.40
52656;SHT85;35474;51.032;6.998;2023-03-24T01:20:28;12.76;83.01
52656;SHT85;35474;51.032;6.998;2023-03-24T01:22:59;12.78;83.16
52656;SHT85;35474;51.032;6.998;2023-03-24T01:25:27;12.74;83.08
52656;SHT85;35474;51.032;6.998;2023-03-24T01:27:54;12.64;83.76
52656;SHT85;35474;51.032;6.998;2023-03-24T01:30:22;12.67;83.60
52656;SHT85;35474;51.032;6.998;2023-03-24T01:32:51;12.72;83.25
52656;SHT85;35474;51.032;6.998;2023-03-24T01:35:19;12.72;83.21
52656;SHT85;35474;51.032;6.998;2023-03-24T01:37:47;12.82;82.73
52656;SHT85;35474;51.032;6.998;2023-03-24T01:40:24;12.84;82.67
52656;SHT85;35474;51.032;6.998;2023-03-24T01:42:55;12.84;82.85
52656;SHT85;35474;51.032;6.998;2023-03-24T01:48:08;12.79;83.06
52656;SHT85;35474;51.032;6.998;2023-03-24T01:50:38;12.92;82.73
52656;SHT85;35474;51.032;6.998;2023-03-24T01:53:07;13.13;81.99
52656;SHT85;35474;51.032;6.998;2023-03-24T01:55:34;13.16;81.86
52656;SHT85;35474;51.032;6.998;2023-03-24T01:58:01;13.43;80.90
52656;SHT85;35474;51.032;6.998;2023-03-24T02:00:28;13.50;80.52
52656;SHT85;35474;51.032;6.998;2023-03-24T02:02:56;13.63;80.14
52656;SHT85;35474;51.032;6.998;2023-03-24T02:05:28;13.64;80.08
52656;SHT85;35474;51.032;6.998;2023-03-24T02:10:42;13.81;79.41
52656;SHT85;35474;51.032;6.998;2023-03-24T02:13:10;13.74;79.64
52656;SHT85;35474;51.032;6.998;2023-03-24T02:15:39;13.77;79.55
52656;SHT85;35474;51.032;6.998;2023-03-24T02:18:36;13.88;79.05
52656;SHT85;35474;51.032;6.998;2023-03-24T02:21:22;13.93;78.78
52656;SHT85;35474;51.032;6.998;2023-03-24T02:26:56;13.93;78.78
52656;SHT85;35474;51.032;6.998;2023-03-24T02:32:18;13.91;78.72
52656;SHT85;35474;51.032;6.998;2023-03-24T02:45:52;13.85;78.96
52656;SHT85;35474;51.032;6.998;2023-03-24T02:57:22;14.01;78.47
52656;SHT85;35474;51.032;6.998;2023-03-24T03:02:31;14.01;78.39
52656;SHT85;35474;51.032;6.998;2023-03-24T03:05:05;14.01;78.44
52656;SHT85;35474;51.032;6.998;2023-03-24T03:07:39;14.04;78.27
52656;SHT85;35474;51.032;6.998;2023-03-24T03:10:13;14.05;78.19
52656;SHT85;35474;51.032;6.998;2023-03-24T03:12:43;14.06;78.26
52656;SHT85;35474;51.032;6.998;2023-03-24T03:15:21;14.09;78.14
52656;SHT85;35474;51.032;6.998;2023-03-24T03:17:53;14.19;77.76
52656;SHT85;35474;51.032;6.998;2023-03-24T03:20:28;14.19;77.49
52656;SHT85;35474;51.032;6.998;2023-03-24T03:23:01;14.28;77.19
52656;SHT85;35474;51.032;6.998;2023-03-24T03:25:34;14.11;78.19
52656;SHT85;35474;51.032;6.998;2023-03-24T03:28:07;14.01;78.81
52656;SHT85;35474;51.032;6.998;2023-03-24T03:30:41;14.01;78.82
52656;SHT85;35474;51.032;6.998;2023-03-24T03:33:17;13.93;79.45
52656;SHT85;35474;51.032;6.998;2023-03-24T03:35:52;13.98;79.08
52656;SHT85;35474;51.032;6.998;2023-03-24T03:41:07;14.02;78.88
52656;SHT85;35474;51.032;6.998;2023-03-24T03:43:33;14.02;79.11
52656;SHT85;35474;51.032;6.998;2023-03-24T03:46:01;14.11;78.46
52656;SHT85;35474;51.032;6.998;2023-03-24T03:48:31;14.15;78.46
52656;SHT85;35474;51.032;6.998;2023-03-24T03:50:59;14.14;78.48
52656;SHT85;35474;51.032;6.998;2023-03-24T03:56:24;14.19;78.36
52656;SHT85;35474;51.032;6.998;2023-03-24T03:58:53;14.18;78.52
52656;SHT85;35474;51.032;6.998;2023-03-24T04:01:21;14.21;78.33
52656;SHT85;35474;51.032;6.998;2023-03-24T04:06:35;14.22;78.46
52656;SHT85;35474;51.032;6.998;2023-03-24T04:20:27;14.30;78.08
52656;SHT85;35474;51.032;6.998;2023-03-24T04:23:13;14.29;78.17
52656;SHT85;35474;51.032;6.998;2023-03-24T04:26:26;14.30;78.06
52656;SHT85;35474;51.032;6.998;2023-03-24T04:29:07;14.33;77.95
52656;SHT85;35474;51.032;6.998;2023-03-24T04:31:42;14.30;77.96
52656;SHT85;35474;51.032;6.998;2023-03-24T04:36:56;14.43;77.49
52656;SHT85;35474;51.032;6.998;2023-03-24T04:39:30;14.59;76.81
52656;SHT85;35474;51.032;6.998;2023-03-24T04:42:01;14.62;76.47
52656;SHT85;35474;51.032;6.998;2023-03-24T04:44:29;14.49;77.15
52656;SHT85;35474;51.032;6.998;2023-03-24T04:46:59;14.43;77.85
52656;SHT85;35474;51.032;6.998;2023-03-24T04:49:27;14.23;78.46
52656;SHT85;35474;51.032;6.998;2023-03-24T04:51:54;14.15;78.34
52656;SHT85;35474;51.032;6.998;2023-03-24T04:54:21;14.11;78.12
52656;SHT85;35474;51.032;6.998;2023-03-24T04:56:49;13.97;78.64
52656;SHT85;35474;51.032;6.998;2023-03-24T04:59:21;13.78;79.60
52656;SHT85;35474;51.032;6.998;2023-03-24T05:01:47;13.58;80.25
52656;SHT85;35474;51.032;6.998;2023-03-24T05:04:21;13.39;80.00
52656;SHT85;35474;51.032;6.998;2023-03-24T05:06:52;13.26;80.43
52656;SHT85;35474;51.032;6.998;2023-03-24T05:09:22;13.19;80.50
52656;SHT85;35474;51.032;6.998;2023-03-24T05:11:50;13.23;80.30
52656;SHT85;35474;51.032;6.998;2023-03-24T05:14:17;13.22;80.41
52656;SHT85;35474;51.032;6.998;2023-03-24T05:16:44;13.09;80.87
52656;SHT85;35474;51.032;6.998;2023-03-24T05:19:13;13.19;80.65
52656;SHT85;35474;51.032;6.998;2023-03-24T05:21:40;13.22;80.47
52656;SHT85;35474;51.032;6.998;2023-03-24T05:24:07;13.19;80.71
52656;SHT85;35474;51.032;6.998;2023-03-24T05:26:34;13.13;80.67
52656;SHT85;35474;51.032;6.998;2023-03-24T05:29:00;13.19;80.18
52656;SHT85;35474;51.032;6.998;2023-03-24T05:31:27;13.12;80.47
52656;SHT85;35474;51.032;6.998;2023-03-24T05:33:54;13.07;80.71
52656;SHT85;35474;51.032;6.998;2023-03-24T05:36:21;13.02;80.85
52656;SHT85;35474;51.032;6.998;2023-03-24T05:38:48;12.99;81.11
52656;SHT85;35474;51.032;6.998;2023-03-24T05:41:14;12.96;81.20
52656;SHT85;35474;51.032;6.998;2023-03-24T05:43:41;12.96;81.16
52656;SHT85;35474;51.032;6.998;2023-03-24T05:46:08;12.91;81.18
52656;SHT85;35474;51.032;6.998;2023-03-24T05:48:34;12.93;79.26
52656;SHT85;35474;51.032;6.998;2023-03-24T05:51:01;12.84;77.98
52656;SHT85;35474;51.032;6.998;2023-03-24T05:53:27;12.78;77.24
52656;SHT85;35474;51.032;6.998;2023-03-24T05:55:54;12.79;74.85
52656;SHT85;35474;51.032;6.998;2023-03-24T05:58:23;12.69;74.41
52656;SHT85;35474;51.032;6.998;2023-03-24T06:00:50;12.65;74.75
52656;SHT85;35474;51.032;6.998;2023-03-24T06:03:17;12.61;74.50
52656;SHT85;35474;51.032;6.998;2023-03-24T06:05:43;12.58;74.60
52656;SHT85;35474;51.032;6.998;2023-03-24T06:08:11;12.51;74.93
52656;SHT85;35474;51.032;6.998;2023-03-24T06:10:38;12.43;74.98
52656;SHT85;35474;51.032;6.998;2023-03-24T06:13:05;12.38;75.03
52656;SHT85;35474;51.032;6.998;2023-03-24T06:15:34;12.37;75.06
52656;SHT85;35474;51.032;6.998;2023-03-24T06:18:01;12.30;75.92
52656;SHT85;35474;51.032;6.998;2023-03-24T06:20:30;12.28;76.59
52656;SHT85;35474;51.032;6.998;2023-03-24T06:22:59;12.30;77.23
52656;SHT85;35474;51.032;6.998;2023-03-24T06:25:28;12.24;78.04
52656;SHT85;35474;51.032;6.998;2023-03-24T06:27:58;12.20;78.92
52656;SHT85;35474;51.032;6.998;2023-03-24T06:30:29;12.23;79.29
52656;SHT85;35474;51.032;6.998;2023-03-24T06:32:56;12.18;79.60
52656;SHT85;35474;51.032;6.998;2023-03-24T06:35:23;12.14;79.30
52656;SHT85;35474;51.032;6.998;2023-03-24T06:37:49;12.12;78.93
52656;SHT85;35474;51.032;6.998;2023-03-24T06:40:16;12.09;77.84
52656;SHT85;35474;51.032;6.998;2023-03-24T06:42:43;12.05;77.57
52656;SHT85;35474;51.032;6.998;2023-03-24T06:45:10;12.02;77.48
52656;SHT85;35474;51.032;6.998;2023-03-24T06:47:37;11.92;77.02
52656;SHT85;35474;51.032;6.998;2023-03-24T06:50:04;12.00;77.43
52656;SHT85;35474;51.032;6.998;2023-03-24T06:52:32;11.96;77.36
52656;SHT85;35474;51.032;6.998;2023-03-24T06:55:02;11.92;77.25
52656;SHT85;35474;51.032;6.998;2023-03-24T06:57:29;11.83;77.60
52656;SHT85;35474;51.032;6.998;2023-03-24T06:59:58;11.70;77.40
52656;SHT85;35474;51.032;6.998;2023-03-24T07:02:24;11.54;77.33
52656;SHT85;35474;51.032;6.998;2023-03-24T07:04:58;11.49;77.51
52656;SHT85;35474;51.032;6.998;2023-03-24T07:07:26;11.48;77.52
52656;SHT85;35474;51.032;6.998;2023-03-24T07:10:12;11.38;76.56
52656;SHT85;35474;51.032;6.998;2023-03-24T07:12:39;11.37;76.69
52656;SHT85;35474;51.032;6.998;2023-03-24T07:15:05;11.35;75.68
52656;SHT85;35474;51.032;6.998;2023-03-24T07:17:36;11.31;75.44
52656;SHT85;35474;51.032;6.998;2023-03-24T07:20:03;11.31;75.70
52656;SHT85;35474;51.032;6.998;2023-03-24T07:22:34;11.34;75.65
52656;SHT85;35474;51.032;6.998;2023-03-24T07:25:02;11.31;74.96
52656;SHT85;35474;51.032;6.998;2023-03-24T07:27:30;11.35;75.19
52656;SHT85;35474;51.032;6.998;2023-03-24T07:32:35;11.35;75.24
52656;SHT85;35474;51.032;6.998;2023-03-24T07:35:08;11.30;75.25
52656;SHT85;35474;51.032;6.998;2023-03-24T07:37:37;11.30;75.33
52656;SHT85;35474;51.032;6.998;2023-03-24T07:40:04;11.38;75.09
52656;SHT85;35474;51.032;6.998;2023-03-24T07:42:34;11.42;75.38
52656;SHT85;35474;51.032;6.998;2023-03-24T07:45:03;11.44;75.11
52656;SHT85;35474;51.032;6.998;2023-03-24T07:47:30;11.35;75.66
52656;SHT85;35474;51.032;6.998;2023-03-24T07:49:58;11.45;75.20
52656;SHT85;35474;51.032;6.998;2023-03-24T07:52:24;11.42;75.26
52656;SHT85;35474;51.032;6.998;2023-03-24T07:54:51;11.45;75.25
52656;SHT85;35474;51.032;6.998;2023-03-24T07:57:17;11.35;75.09
52656;SHT85;35474;51.032;6.998;2023-03-24T07:59:44;11.47;75.10
52656;SHT85;35474;51.032;6.998;2023-03-24T08:02:15;11.48;74.46
52656;SHT85;35474;51.032;6.998;2023-03-24T08:04:45;11.51;74.33
52656;SHT85;35474;51.032;6.998;2023-03-24T08:07:17;11.47;74.34
52656;SHT85;35474;51.032;6.998;2023-03-24T08:09:44;11.57;74.17
52656;SHT85;35474;51.032;6.998;2023-03-24T08:12:11;11.57;74.27
52656;SHT85;35474;51.032;6.998;2023-03-24T08:14:45;11.61;73.83
52656;SHT85;35474;51.032;6.998;2023-03-24T08:17:12;11.63;72.84
52656;SHT85;35474;51.032;6.998;2023-03-24T08:19:38;11.72;72.92
52656;SHT85;35474;51.032;6.998;2023-03-24T08:22:21;11.75;72.61
52656;SHT85;35474;51.032;6.998;2023-03-24T08:24:48;11.96;72.62
52656;SHT85;35474;51.032;6.998;2023-03-24T08:27:14;11.76;72.53
52656;SHT85;35474;51.032;6.998;2023-03-24T08:29:42;12.21;72.41
52656;SHT85;35474;51.032;6.998;2023-03-24T08:32:08;12.96;69.59
52656;SHT85;35474;51.032;6.998;2023-03-24T08:34:35;12.68;67.82
52656;SHT85;35474;51.032;6.998;2023-03-24T08:37:01;12.91;68.12
52656;SHT85;35474;51.032;6.998;2023-03-24T08:39:28;13.57;66.62
52656;SHT85;35474;51.032;6.998;2023-03-24T08:42:01;12.92;68.97
52656;SHT85;35474;51.032;6.998;2023-03-24T08:44:28;13.25;68.75
52656;SHT85;35474;51.032;6.998;2023-03-24T08:46:59;12.85;68.40
52656;SHT85;35474;51.032;6.998;2023-03-24T08:49:26;12.81;68.04
52656;SHT85;35474;51.032;6.998;2023-03-24T08:51:53;12.81;67.62
52656;SHT85;35474;51.032;6.998;2023-03-24T08:54:20;12.88;68.19
52656;SHT85;35474;51.032;6.998;2023-03-24T08:56:48;12.95;68.45
52656;SHT85;35474;51.032;6.998;2023-03-24T08:59:16;12.71;68.63
52656;SHT85;35474;51.032;6.998;2023-03-24T09:01:43;12.61;68.92
52656;SHT85;35474;51.032;6.998;2023-03-24T09:04:10;12.64;68.75
52656;SHT85;35474;51.032;6.998;2023-03-24T09:06:36;12.79;68.26
52656;SHT85;35474;51.032;6.998;2023-03-24T09:09:03;12.92;68.69
52656;SHT85;35474;51.032;6.998;2023-03-24T09:11:30;12.99;67.76
52656;SHT85;35474;51.032;6.998;2023-03-24T09:13:57;13.13;67.98
52656;SHT85;35474;51.032;6.998;2023-03-24T09:16:24;13.23;68.29
52656;SHT85;35474;51.032;6.998;2023-03-24T09:18:50;13.47;66.47
52656;SHT85;35474;51.032;6.998;2023-03-24T09:21:17;14.11;66.15
52656;SHT85;35474;51.032;6.998;2023-03-24T09:23:44;13.93;65.39
52656;SHT85;35474;51.032;6.998;2023-03-24T09:26:10;13.90;64.99
52656;SHT85;35474;51.032;6.998;2023-03-24T09:28:37;13.26;67.00
52656;SHT85;35474;51.032;6.998;2023-03-24T09:31:04;13.71;65.60
52656;SHT85;35474;51.032;6.998;2023-03-24T09:33:31;14.42;62.44
52656;SHT85;35474;51.032;6.998;2023-03-24T09:36:00;15.05;60.76
52656;SHT85;35474;51.032;6.998;2023-03-24T09:38:28;14.53;61.27
52656;SHT85;35474;51.032;6.998;2023-03-24T09:40:56;14.43;61.01
52656;SHT85;35474;51.032;6.998;2023-03-24T09:43:35;14.19;62.19
52656;SHT85;35474;51.032;6.998;2023-03-24T09:46:13;14.33;62.34
52656;SHT85;35474;51.032;6.998;2023-03-24T09:48:55;14.97;60.55
52656;SHT85;35474;51.032;6.998;2023-03-24T09:51:43;14.29;61.27
52656;SHT85;35474;51.032;6.998;2023-03-24T09:54:18;14.67;60.83
52656;SHT85;35474;51.032;6.998;2023-03-24T09:56:57;13.97;63.06
52656;SHT85;35474;51.032;6.998;2023-03-24T09:59:33;14.35;61.59
52656;SHT85;35474;51.032;6.998;2023-03-24T10:02:15;14.22;62.66
52656;SHT85;35474;51.032;6.998;2023-03-24T10:04:59;14.08;62.61
52656;SHT85;35474;51.032;6.998;2023-03-24T10:07:45;13.60;63.70
52656;SHT85;35474;51.032;6.998;2023-03-24T10:13:42;15.01;61.35
52656;SHT85;35474;51.032;6.998;2023-03-24T10:31:27;15.41;57.43
52656;SHT85;35474;51.032;6.998;2023-03-24T10:34:09;15.42;57.65
52656;SHT85;35474;51.032;6.998;2023-03-24T10:36:37;15.03;59.46
52656;SHT85;35474;51.032;6.998;2023-03-24T10:39:05;14.48;61.09
52656;SHT85;35474;51.032;6.998;2023-03-24T10:41:47;14.70;60.18
52656;SHT85;35474;51.032;6.998;2023-03-24T10:44:16;14.36;60.64
52656;SHT85;35474;51.032;6.998;2023-03-24T10:46:47;15.17;58.14
52656;SHT85;35474;51.032;6.998;2023-03-24T10:49:18;16.68;52.78
52656;SHT85;35474;51.032;6.998;2023-03-24T10:51:47;15.58;54.63
52656;SHT85;35474;51.032;6.998;2023-03-24T10:54:20;15.10;56.23
52656;SHT85;35474;51.032;6.998;2023-03-24T10:56:59;15.27;55.55
52656;SHT85;35474;51.032;6.998;2023-03-24T11:02:23;15.90;54.13
52656;SHT85;35474;51.032;6.998;2023-03-24T11:04:57;15.89;54.68
52656;SHT85;35474;51.032;6.998;2023-03-24T11:07:45;15.96;53.67
52656;SHT85;35474;51.032;6.998;2023-03-24T11:10:18;15.46;54.36
52656;SHT85;35474;51.032;6.998;2023-03-24T11:20:47;14.69;56.43
52656;SHT85;35474;51.032;6.998;2023-03-24T11:23:28;14.63;57.13
52656;SHT85;35474;51.032;6.998;2023-03-24T11:26:14;14.98;56.25
52656;SHT85;35474;51.032;6.998;2023-03-24T11:28:50;15.01;55.96
52656;SHT85;35474;51.032;6.998;2023-03-24T11:31:22;14.59;56.98
52656;SHT85;35474;51.032;6.998;2023-03-24T11:42:12;14.51;58.60
52656;SHT85;35474;51.032;6.998;2023-03-24T11:52:32;14.69;58.80
52656;SHT85;35474;51.032;6.998;2023-03-24T11:55:03;15.05;57.32
52656;SHT85;35474;51.032;6.998;2023-03-24T11:57:52;15.94;55.08
52656;SHT85;35474;51.032;6.998;2023-03-24T12:00:41;15.17;57.29
52656;SHT85;35474;51.032;6.998;2023-03-24T12:06:23;15.28;56.68
52656;SHT85;35474;51.032;6.998;2023-03-24T12:18:11;16.10;55.50
52656;SHT85;35474;51.032;6.998;2023-03-24T12:20:42;15.82;55.16
52656;SHT85;35474;51.032;6.998;2023-03-24T12:26:09;15.36;54.00
52656;SHT85;35474;51.032;6.998;2023-03-24T12:28:46;15.66;53.88
52656;SHT85;35474;51.032;6.998;2023-03-24T12:37:32;17.07;50.68
52656;SHT85;35474;51.032;6.998;2023-03-24T12:45:53;17.16;48.60
52656;SHT85;35474;51.032;6.998;2023-03-24T12:51:13;16.18;50.58
52656;SHT85;35474;51.032;6.998;2023-03-24T12:56:53;15.45;51.85
52656;SHT85;35474;51.032;6.998;2023-03-24T12:59:37;15.35;52.16
52656;SHT85;35474;51.032;6.998;2023-03-24T13:02:15;15.42;52.35
52656;SHT85;35474;51.032;6.998;2023-03-24T13:04:46;15.28;52.42
52656;SHT85;35474;51.032;6.998;2023-03-24T13:07:17;15.14;52.49
52656;SHT85;35474;51.032;6.998;2023-03-24T13:09:56;15.45;52.07
52656;SHT85;35474;51.032;6.998;2023-03-24T13:12:40;15.35;52.15
52656;SHT85;35474;51.032;6.998;2023-03-24T13:18:18;15.70;51.99
52656;SHT85;35474;51.032;6.998;2023-03-24T13:20:52;15.70;51.89
52656;SHT85;35474;51.032;6.998;2023-03-24T13:23:36;15.45;52.59
52656;SHT85;35474;51.032;6.998;2023-03-24T13:26:31;15.38;52.47
52656;SHT85;35474;51.032;6.998;2023-03-24T13:32:13;15.86;51.83
52656;SHT85;35474;51.032;6.998;2023-03-24T13:35:10;15.83;50.91
52656;SHT85;35474;51.032;6.998;2023-03-24T13:37:45;15.70;51.41
52656;SHT85;35474;51.032;6.998;2023-03-24T13:40:26;15.74;51.56
52656;SHT85;35474;51.032;6.998;2023-03-24T13:43:00;16.40;50.09
52656;SHT85;35474;51.032;6.998;2023-03-24T13:45:40;16.83;50.02
52656;SHT85;35474;51.032;6.998;2023-03-24T13:48:19;16.18;51.42
52656;SHT85;35474;51.032;6.998;2023-03-24T13:53:57;16.64;48.99
52656;SHT85;35474;51.032;6.998;2023-03-24T13:56:38;16.57;49.57
52656;SHT85;35474;51.032;6.998;2023-03-24T14:01:38;16.28;49.73
52656;SHT85;35474;51.032;6.998;2023-03-24T14:15:29;15.72;50.07
52656;SHT85;35474;51.032;6.998;2023-03-24T14:26:15;13.43;64.34
52656;SHT85;35474;51.032;6.998;2023-03-24T14:28:59;13.51;65.20
52656;SHT85;35474;51.032;6.998;2023-03-24T14:31:30;13.54;65.28
52656;SHT85;35474;51.032;6.998;2023-03-24T14:33:59;13.48;64.91
52656;SHT85;35474;51.032;6.998;2023-03-24T14:41:37;14.00;62.70
52656;SHT85;35474;51.032;6.998;2023-03-24T14:44:06;14.12;62.31
52656;SHT85;35474;51.032;6.998;2023-03-24T14:46:36;14.22;60.82
52656;SHT85;35474;51.032;6.998;2023-03-24T14:51:46;14.69;59.67
52656;SHT85;35474;51.032;6.998;2023-03-24T14:54:30;15.10;58.53
52656;SHT85;35474;51.032;6.998;2023-03-24T14:57:15;15.17;57.33
52656;SHT85;35474;51.032;6.998;2023-03-24T15:00:32;15.72;56.70
52656;SHT85;35474;51.032;6.998;2023-03-24T15:02:42;15.67;55.17
52656;SHT85;35474;51.032;6.998;2023-03-24T15:07:41;15.74;53.91
52656;SHT85;35474;51.032;6.998;2023-03-24T15:10:15;15.86;53.71
52656;SHT85;35474;51.032;6.998;2023-03-24T15:12:46;15.91;54.20
52656;SHT85;35474;51.032;6.998;2023-03-24T15:15:18;16.32;52.93
52656;SHT85;35474;51.032;6.998;2023-03-24T15:17:48;16.82;51.46
52656;SHT85;35474;51.032;6.998;2023-03-24T15:22:53;15.80;52.83
52656;SHT85;35474;51.032;6.998;2023-03-24T15:25:24;16.13;52.54
52656;SHT85;35474;51.032;6.998;2023-03-24T15:27:54;16.32;52.38
52656;SHT85;35474;51.032;6.998;2023-03-24T15:30:22;16.18;53.30
52656;SHT85;35474;51.032;6.998;2023-03-24T15:32:50;15.79;54.20
52656;SHT85;35474;51.032;6.998;2023-03-24T15:35:18;15.62;53.93
52656;SHT85;35474;51.032;6.998;2023-03-24T15:37:49;15.76;53.90
52656;SHT85;35474;51.032;6.998;2023-03-24T15:42:58;15.31;54.81
52656;SHT85;35474;51.032;6.998;2023-03-24T15:47:56;14.91;55.91
52656;SHT85;35474;51.032;6.998;2023-03-24T15:50:28;14.88;56.41
52656;SHT85;35474;51.032;6.998;2023-03-24T15:53:04;14.85;56.75
52656;SHT85;35474;51.032;6.998;2023-03-24T16:01:40;14.83;57.12
52656;SHT85;35474;51.032;6.998;2023-03-24T16:04:14;14.74;57.83
52656;SHT85;35474;51.032;6.998;2023-03-24T16:06:47;14.81;57.80
52656;SHT85;35474;51.032;6.998;2023-03-24T16:09:19;14.80;57.98
52656;SHT85;35474;51.032;6.998;2023-03-24T16:11:48;14.83;58.14
52656;SHT85;35474;51.032;6.998;2023-03-24T16:14:29;14.35;60.63
52656;SHT85;35474;51.032;6.998;2023-03-24T16:16:58;12.24;75.83
52656;SHT85;35474;51.032;6.998;2023-03-24T16:19:27;10.86;87.05
52656;SHT85;35474;51.032;6.998;2023-03-24T16:21:54;10.38;89.98
52656;SHT85;35474;51.032;6.998;2023-03-24T16:24:21;10.12;91.37
52656;SHT85;35474;51.032;6.998;2023-03-24T16:26:48;10.31;92.17
52656;SHT85;35474;51.032;6.998;2023-03-24T16:29:16;10.14;91.85
52656;SHT85;35474;51.032;6.998;2023-03-24T16:31:44;10.25;91.40
52656;SHT85;35474;51.032;6.998;2023-03-24T16:34:14;10.33;91.38
52656;SHT85;35474;51.032;6.998;2023-03-24T16:36:47;10.49;91.33
52656;SHT85;35474;51.032;6.998;2023-03-24T16:39:18;10.58;90.11
52656;SHT85;35474;51.032;6.998;2023-03-24T16:41:49;10.73;90.77
52656;SHT85;35474;51.032;6.998;2023-03-24T16:44:18;10.91;87.45
52656;SHT85;35474;51.032;6.998;2023-03-24T16:46:46;10.97;84.19
52656;SHT85;35474;51.032;6.998;2023-03-24T16:49:16;10.79;82.96
52656;SHT85;35474;51.032;6.998;2023-03-24T16:51:44;10.48;85.14
52656;SHT85;35474;51.032;6.998;2023-03-24T16:54:17;10.50;85.81
52656;SHT85;35474;51.032;6.998;2023-03-24T16:56:45;10.48;85.22
52656;SHT85;35474;51.032;6.998;2023-03-24T16:59:12;10.45;85.24
52656;SHT85;35474;51.032;6.998;2023-03-24T17:01:41;10.70;85.84
52656;SHT85;35474;51.032;6.998;2023-03-24T17:06:43;11.11;83.54
52656;SHT85;35474;51.032;6.998;2023-03-24T17:09:18;11.16;83.26
52656;SHT85;35474;51.032;6.998;2023-03-24T17:11:52;11.21;82.61
52656;SHT85;35474;51.032;6.998;2023-03-24T17:14:21;11.45;82.64
52656;SHT85;35474;51.032;6.998;2023-03-24T17:16:48;11.27;82.59
52656;SHT85;35474;51.032;6.998;2023-03-24T17:19:19;11.32;83.07
52656;SHT85;35474;51.032;6.998;2023-03-24T17:21:49;11.48;81.80
52656;SHT85;35474;51.032;6.998;2023-03-24T17:24:22;11.51;80.31
52656;SHT85;35474;51.032;6.998;2023-03-24T17:26:53;11.44;80.42
52656;SHT85;35474;51.032;6.998;2023-03-24T17:29:21;11.39;79.64
52656;SHT85;35474;51.032;6.998;2023-03-24T17:31:51;11.55;77.52
52656;SHT85;35474;51.032;6.998;2023-03-24T17:34:19;11.28;78.66
52656;SHT85;35474;51.032;6.998;2023-03-24T17:36:47;11.34;75.29
52656;SHT85;35474;51.032;6.998;2023-03-24T17:39:16;11.41;75.41
52656;SHT85;35474;51.032;6.998;2023-03-24T17:41:44;11.21;76.13
52656;SHT85;35474;51.032;6.998;2023-03-24T17:44:12;11.21;76.22
52656;SHT85;35474;51.032;6.998;2023-03-24T17:46:45;11.08;76.27
52656;SHT85;35474;51.032;6.998;2023-03-24T17:49:14;10.91;77.21
52656;SHT85;35474;51.032;6.998;2023-03-24T17:51:41;10.80;77.71
52656;SHT85;35474;51.032;6.998;2023-03-24T17:54:07;10.68;78.88
52656;SHT85;35474;51.032;6.998;2023-03-24T17:56:35;10.69;78.38
52656;SHT85;35474;51.032;6.998;2023-03-24T17:59:05;10.69;78.84
52656;SHT85;35474;51.032;6.998;2023-03-24T18:01:31;10.65;79.40
52656;SHT85;35474;51.032;6.998;2023-03-24T18:04:00;10.52;80.49
52656;SHT85;35474;51.032;6.998;2023-03-24T18:06:27;10.44;80.97
52656;SHT85;35474;51.032;6.998;2023-03-24T18:08:56;10.39;81.25
52656;SHT85;35474;51.032;6.998;2023-03-24T18:11:23;10.33;81.29
52656;SHT85;35474;51.032;6.998;2023-03-24T18:13:49;10.31;81.09
52656;SHT85;35474;51.032;6.998;2023-03-24T18:16:17;10.25;81.21
52656;SHT85;35474;51.032;6.998;2023-03-24T18:18:47;10.14;81.86
52656;SHT85;35474;51.032;6.998;2023-03-24T18:21:16;10.14;81.99
52656;SHT85;35474;51.032;6.998;2023-03-24T18:23:43;10.08;82.07
52656;SHT85;35474;51.032;6.998;2023-03-24T18:26:12;10.00;82.43
52656;SHT85;35474;51.032;6.998;2023-03-24T18:28:41;9.98;82.86
52656;SHT85;35474;51.032;6.998;2023-03-24T18:31:17;10.01;83.76
52656;SHT85;35474;51.032;6.998;2023-03-24T18:33:49;10.07;84.09
52656;SHT85;35474;51.032;6.998;2023-03-24T18:36:17;10.08;84.33
52656;SHT85;35474;51.032;6.998;2023-03-24T18:41:22;10.18;83.77
52656;SHT85;35474;51.032;6.998;2023-03-24T18:43:53;10.22;83.71
52656;SHT85;35474;51.032;6.998;2023-03-24T18:46:20;10.31;83.41
52656;SHT85;35474;51.032;6.998;2023-03-24T18:48:47;10.26;83.25
52656;SHT85;35474;51.032;6.998;2023-03-24T18:51:14;10.26;83.38
52656;SHT85;35474;51.032;6.998;2023-03-24T18:53:40;10.31;83.22
52656;SHT85;35474;51.032;6.998;2023-03-24T19:03:34;10.22;83.66
52656;SHT85;35474;51.032;6.998;2023-03-24T19:06:04;10.22;83.82
52656;SHT85;35474;51.032;6.998;2023-03-24T19:08:33;10.31;84.07
52656;SHT85;35474;51.032;6.998;2023-03-24T19:11:01;10.18;84.19
52656;SHT85;35474;51.032;6.998;2023-03-24T19:13:27;10.25;84.17
52656;SHT85;35474;51.032;6.998;2023-03-24T19:15:54;10.15;84.64
52656;SHT85;35474;51.032;6.998;2023-03-24T19:18:21;10.17;84.97
52656;SHT85;35474;51.032;6.998;2023-03-24T19:20:49;10.25;85.04